sensor_id;sensor_type;location;lat;lon;timestamp;temperature;humidity
47861;HTU21D;33620;52.340;5.984;2022-10-31T00:01:39;13.95;86.73
47861;HTU21D;33620;52.340;5.984;2022-10-31T00:04:05;13.95;86.70
47861;HTU21D;33620;52.340;5.984;2022-10-31T00:06:31;13.92;86.59
47861;HTU21D;33620;52.340;5.984;2022-10-31T00:08:59;13.88;86.67
47861;HTU21D;33620;52.340;5.984;2022-10-31T00:11:27;13.89;86.79
47861;HTU21D;33620;52.340;5.984;2022-10-31T00:13:53;13.88;86.79
47861;HTU21D;33620;52.340;5.984;2022-10-31T00:16:21;13.82;86.30
47861;HTU21D;33620;52.340;5.984;2022-10-31T00:18:54;13.77;86.06
47861;HTU21D;33620;52.340;5.984;2022-10-31T00:21:21;13.70;86.02
47861;HTU21D;33620;52.340;5.984;2022-10-31T00:23:46;13.63;86.12
47861;HTU21D;33620;52.340;5.984;2022-10-31T00:26:12;13.61;86.32
47861;HTU21D;33620;52.340;5.984;2022-10-31T00:28:38;13.59;86.38
47861;HTU21D;33620;52.340;5.984;2022-10-31T00:31:06;13.56;86.37
47861;HTU21D;33620;52.340;5.984;2022-10-31T00:33:36;13.52;86.33
47861;HTU21D;33620;52.340;5.984;2022-10-31T00:36:03;13.53;86.31
47861;HTU21D;33620;52.340;5.984;2022-10-31T00:38:29;13.52;86.41
47861;HTU21D;33620;52.340;5.984;2022-10-31T00:40:55;13.50;86.40
47861;HTU21D;33620;52.340;5.984;2022-10-31T00:43:20;13.50;86.41
47861;HTU21D;33620;52.340;5.984;2022-10-31T00:45:46;13.50;86.51
47861;HTU21D;33620;52.340;5.984;2022-10-31T00:48:11;13.49;86.54
47861;HTU21D;33620;52.340;5.984;2022-10-31T00:50:37;13.49;86.54
47861;HTU21D;33620;52.340;5.984;2022-10-31T00:53:02;13.44;86.49
47861;HTU21D;33620;52.340;5.984;2022-10-31T00:55:28;13.36;86.68
47861;HTU21D;33620;52.340;5.984;2022-10-31T00:57:53;13.34;86.93
47861;HTU21D;33620;52.340;5.984;2022-10-31T01:00:19;13.30;87.35
47861;HTU21D;33620;52.340;5.984;2022-10-31T01:02:44;13.30;87.35
47861;HTU21D;33620;52.340;5.984;2022-10-31T01:05:10;13.34;87.37
47861;HTU21D;33620;52.340;5.984;2022-10-31T01:07:36;13.33;87.04
47861;HTU21D;33620;52.340;5.984;2022-10-31T01:10:03;13.27;86.93
47861;HTU21D;33620;52.340;5.984;2022-10-31T01:12:28;13.27;87.13
47861;HTU21D;33620;52.340;5.984;2022-10-31T01:14:54;13.30;86.98
47861;HTU21D;33620;52.340;5.984;2022-10-31T01:17:19;13.25;86.87
47861;HTU21D;33620;52.340;5.984;2022-10-31T01:19:45;13.24;86.80
47861;HTU21D;33620;52.340;5.984;2022-10-31T01:22:10;13.21;86.90
47861;HTU21D;33620;52.340;5.984;2022-10-31T01:24:36;13.20;87.02
47861;HTU21D;33620;52.340;5.984;2022-10-31T01:27:02;13.22;86.99
47861;HTU21D;33620;52.340;5.984;2022-10-31T01:29:27;13.23;87.03
47861;HTU21D;33620;52.340;5.984;2022-10-31T01:31:53;13.23;87.01
47861;HTU21D;33620;52.340;5.984;2022-10-31T01:34:18;13.21;86.80
47861;HTU21D;33620;52.340;5.984;2022-10-31T01:36:44;13.17;86.87
47861;HTU21D;33620;52.340;5.984;2022-10-31T01:39:14;13.17;86.79
47861;HTU21D;33620;52.340;5.984;2022-10-31T01:41:49;13.17;87.15
47861;HTU21D;33620;52.340;5.984;2022-10-31T01:49:31;13.11;86.87
47861;HTU21D;33620;52.340;5.984;2022-10-31T01:54:53;13.11;87.19
47861;HTU21D;33620;52.340;5.984;2022-10-31T01:57:25;13.07;86.87
47861;HTU21D;33620;52.340;5.984;2022-10-31T01:59:54;13.04;86.79
47861;HTU21D;33620;52.340;5.984;2022-10-31T02:02:20;13.00;86.74
47861;HTU21D;33620;52.340;5.984;2022-10-31T02:04:47;12.96;86.87
47861;HTU21D;33620;52.340;5.984;2022-10-31T02:07:29;13.00;87.06
47861;HTU21D;33620;52.340;5.984;2022-10-31T02:09:56;12.99;87.09
47861;HTU21D;33620;52.340;5.984;2022-10-31T02:12:22;12.97;87.02
47861;HTU21D;33620;52.340;5.984;2022-10-31T02:14:48;12.93;86.70
47861;HTU21D;33620;52.340;5.984;2022-10-31T02:17:14;12.92;86.83
47861;HTU21D;33620;52.340;5.984;2022-10-31T02:25:18;12.77;86.64
47861;HTU21D;33620;52.340;5.984;2022-10-31T02:36:33;12.71;86.48
47861;HTU21D;33620;52.340;5.984;2022-10-31T02:44:58;12.56;86.01
47861;HTU21D;33620;52.340;5.984;2022-10-31T02:47:28;12.50;85.90
47861;HTU21D;33620;52.340;5.984;2022-10-31T02:52:29;12.44;85.83
47861;HTU21D;33620;52.340;5.984;2022-10-31T02:54:55;12.42;85.76
47861;HTU21D;33620;52.340;5.984;2022-10-31T02:57:25;12.40;85.71
47861;HTU21D;33620;52.340;5.984;2022-10-31T03:00:02;12.31;85.74
47861;HTU21D;33620;52.340;5.984;2022-10-31T03:08:31;12.22;85.88
47861;HTU21D;33620;52.340;5.984;2022-10-31T03:11:01;12.20;85.55
47861;HTU21D;33620;52.340;5.984;2022-10-31T03:16:35;12.16;85.84
47861;HTU21D;33620;52.340;5.984;2022-10-31T03:19:08;12.16;85.74
47861;HTU21D;33620;52.340;5.984;2022-10-31T03:21:39;12.11;85.67
47861;HTU21D;33620;52.340;5.984;2022-10-31T03:24:06;12.04;85.67
47861;HTU21D;33620;52.340;5.984;2022-10-31T03:26:35;12.01;85.78
47861;HTU21D;33620;52.340;5.984;2022-10-31T03:29:05;11.98;85.67
47861;HTU21D;33620;52.340;5.984;2022-10-31T03:31:47;11.97;85.64
47861;HTU21D;33620;52.340;5.984;2022-10-31T03:34:15;11.93;85.51
47861;HTU21D;33620;52.340;5.984;2022-10-31T03:36:43;11.89;85.37
47861;HTU21D;33620;52.340;5.984;2022-10-31T03:39:13;11.84;85.41
47861;HTU21D;33620;52.340;5.984;2022-10-31T03:41:57;11.83;85.30
47861;HTU21D;33620;52.340;5.984;2022-10-31T03:44:27;11.78;85.37
47861;HTU21D;33620;52.340;5.984;2022-10-31T03:46:53;11.79;85.35
47861;HTU21D;33620;52.340;5.984;2022-10-31T03:49:19;11.79;85.32
47861;HTU21D;33620;52.340;5.984;2022-10-31T03:54:32;11.76;85.20
47861;HTU21D;33620;52.340;5.984;2022-10-31T03:57:08;11.71;85.01
47861;HTU21D;33620;52.340;5.984;2022-10-31T03:59:41;11.64;85.13
47861;HTU21D;33620;52.340;5.984;2022-10-31T04:02:12;11.61;85.00
47861;HTU21D;33620;52.340;5.984;2022-10-31T04:04:39;11.54;85.11
47861;HTU21D;33620;52.340;5.984;2022-10-31T04:07:06;11.49;85.29
47861;HTU21D;33620;52.340;5.984;2022-10-31T04:09:35;11.46;85.29
47861;HTU21D;33620;52.340;5.984;2022-10-31T04:12:03;11.44;85.35
47861;HTU21D;33620;52.340;5.984;2022-10-31T04:14:32;11.44;85.42
47861;HTU21D;33620;52.340;5.984;2022-10-31T04:16:59;11.42;85.29
47861;HTU21D;33620;52.340;5.984;2022-10-31T04:19:26;11.37;85.20
47861;HTU21D;33620;52.340;5.984;2022-10-31T04:21:51;11.34;85.15
47861;HTU21D;33620;52.340;5.984;2022-10-31T04:24:17;11.30;85.03
47861;HTU21D;33620;52.340;5.984;2022-10-31T04:26:42;11.26;85.01
47861;HTU21D;33620;52.340;5.984;2022-10-31T04:29:08;11.25;85.08
47861;HTU21D;33620;52.340;5.984;2022-10-31T04:31:33;11.22;85.23
47861;HTU21D;33620;52.340;5.984;2022-10-31T04:33:58;11.20;85.08
47861;HTU21D;33620;52.340;5.984;2022-10-31T04:36:24;11.16;84.93
47861;HTU21D;33620;52.340;5.984;2022-10-31T04:38:49;11.12;85.03
47861;HTU21D;33620;52.340;5.984;2022-10-31T04:41:14;11.11;85.18
47861;HTU21D;33620;52.340;5.984;2022-10-31T04:43:40;11.08;85.06
47861;HTU21D;33620;52.340;5.984;2022-10-31T04:46:05;11.03;85.04
47861;HTU21D;33620;52.340;5.984;2022-10-31T04:48:30;11.01;85.11
47861;HTU21D;33620;52.340;5.984;2022-10-31T04:51:00;10.98;85.02
47861;HTU21D;33620;52.340;5.984;2022-10-31T04:53:26;10.94;84.97
47861;HTU21D;33620;52.340;5.984;2022-10-31T04:55:51;10.90;84.92
47861;HTU21D;33620;52.340;5.984;2022-10-31T04:58:17;10.87;84.78
47861;HTU21D;33620;52.340;5.984;2022-10-31T05:00:42;10.86;84.74
47861;HTU21D;33620;52.340;5.984;2022-10-31T05:03:07;10.85;84.67
47861;HTU21D;33620;52.340;5.984;2022-10-31T05:05:33;10.81;84.56
47861;HTU21D;33620;52.340;5.984;2022-10-31T05:07:58;10.78;84.45
47861;HTU21D;33620;52.340;5.984;2022-10-31T05:10:26;10.73;84.57
47861;HTU21D;33620;52.340;5.984;2022-10-31T05:13:00;10.70;84.51
47861;HTU21D;33620;52.340;5.984;2022-10-31T05:15:27;10.67;84.59
47861;HTU21D;33620;52.340;5.984;2022-10-31T05:17:53;10.64;84.64
47861;HTU21D;33620;52.340;5.984;2022-10-31T05:20:20;10.63;84.77
47861;HTU21D;33620;52.340;5.984;2022-10-31T05:22:48;10.62;84.58
47861;HTU21D;33620;52.340;5.984;2022-10-31T05:25:14;10.60;84.45
47861;HTU21D;33620;52.340;5.984;2022-10-31T05:27:46;10.55;84.43
47861;HTU21D;33620;52.340;5.984;2022-10-31T05:30:14;10.50;84.44
47861;HTU21D;33620;52.340;5.984;2022-10-31T05:32:41;10.46;84.63
47861;HTU21D;33620;52.340;5.984;2022-10-31T05:35:08;10.44;84.97
47861;HTU21D;33620;52.340;5.984;2022-10-31T05:37:36;10.42;85.09
47861;HTU21D;33620;52.340;5.984;2022-10-31T05:40:06;10.42;85.03
47861;HTU21D;33620;52.340;5.984;2022-10-31T05:42:32;10.39;85.09
47861;HTU21D;33620;52.340;5.984;2022-10-31T05:44:57;10.39;85.17
47861;HTU21D;33620;52.340;5.984;2022-10-31T05:47:23;10.39;85.18
47861;HTU21D;33620;52.340;5.984;2022-10-31T05:49:48;10.41;85.23
47861;HTU21D;33620;52.340;5.984;2022-10-31T05:52:14;10.41;85.07
47861;HTU21D;33620;52.340;5.984;2022-10-31T05:54:39;10.38;85.14
47861;HTU21D;33620;52.340;5.984;2022-10-31T05:57:05;10.38;85.22
47861;HTU21D;33620;52.340;5.984;2022-10-31T05:59:30;10.34;85.12
47861;HTU21D;33620;52.340;5.984;2022-10-31T06:01:56;10.34;85.25
47861;HTU21D;33620;52.340;5.984;2022-10-31T06:04:21;10.31;85.35
47861;HTU21D;33620;52.340;5.984;2022-10-31T06:06:46;10.33;85.32
47861;HTU21D;33620;52.340;5.984;2022-10-31T06:09:12;10.31;85.11
47861;HTU21D;33620;52.340;5.984;2022-10-31T06:11:37;10.29;85.07
47861;HTU21D;33620;52.340;5.984;2022-10-31T06:14:03;10.30;85.19
47861;HTU21D;33620;52.340;5.984;2022-10-31T06:16:28;10.30;85.08
47861;HTU21D;33620;52.340;5.984;2022-10-31T06:18:54;10.30;85.24
47861;HTU21D;33620;52.340;5.984;2022-10-31T06:21:19;10.30;85.10
47861;HTU21D;33620;52.340;5.984;2022-10-31T06:23:44;10.29;85.04
47861;HTU21D;33620;52.340;5.984;2022-10-31T06:26:10;10.28;85.15
47861;HTU21D;33620;52.340;5.984;2022-10-31T06:28:35;10.26;84.97
47861;HTU21D;33620;52.340;5.984;2022-10-31T06:31:01;10.23;84.94
47861;HTU21D;33620;52.340;5.984;2022-10-31T06:33:26;10.18;85.39
47861;HTU21D;33620;52.340;5.984;2022-10-31T06:35:51;10.15;85.35
47861;HTU21D;33620;52.340;5.984;2022-10-31T06:38:17;10.11;85.43
47861;HTU21D;33620;52.340;5.984;2022-10-31T06:40:42;10.09;85.53
47861;HTU21D;33620;52.340;5.984;2022-10-31T06:43:07;10.08;85.50
47861;HTU21D;33620;52.340;5.984;2022-10-31T06:45:33;10.10;85.51
47861;HTU21D;33620;52.340;5.984;2022-10-31T06:47:59;10.11;85.23
47861;HTU21D;33620;52.340;5.984;2022-10-31T06:50:24;10.11;85.01
47861;HTU21D;33620;52.340;5.984;2022-10-31T06:52:54;10.09;84.77
47861;HTU21D;33620;52.340;5.984;2022-10-31T06:55:20;10.07;84.87
47861;HTU21D;33620;52.340;5.984;2022-10-31T06:57:54;10.06;84.88
47861;HTU21D;33620;52.340;5.984;2022-10-31T07:00:20;10.03;84.87
47861;HTU21D;33620;52.340;5.984;2022-10-31T07:05:20;10.03;85.03
47861;HTU21D;33620;52.340;5.984;2022-10-31T07:07:46;10.00;84.98
47861;HTU21D;33620;52.340;5.984;2022-10-31T07:10:11;9.99;85.11
47861;HTU21D;33620;52.340;5.984;2022-10-31T07:12:37;9.98;85.08
47861;HTU21D;33620;52.340;5.984;2022-10-31T07:15:03;9.98;85.32
47861;HTU21D;33620;52.340;5.984;2022-10-31T07:17:28;10.00;85.52
47861;HTU21D;33620;52.340;5.984;2022-10-31T07:19:54;10.01;85.48
47861;HTU21D;33620;52.340;5.984;2022-10-31T07:22:19;10.06;85.66
47861;HTU21D;33620;52.340;5.984;2022-10-31T07:24:44;10.11;86.00
47861;HTU21D;33620;52.340;5.984;2022-10-31T07:27:10;10.14;85.95
47861;HTU21D;33620;52.340;5.984;2022-10-31T07:29:35;10.19;85.98
47861;HTU21D;33620;52.340;5.984;2022-10-31T07:32:00;10.23;86.00
47861;HTU21D;33620;52.340;5.984;2022-10-31T07:34:26;10.23;85.90
47861;HTU21D;33620;52.340;5.984;2022-10-31T07:36:52;10.20;86.12
47861;HTU21D;33620;52.340;5.984;2022-10-31T07:39:17;10.18;86.54
47861;HTU21D;33620;52.340;5.984;2022-10-31T07:41:42;10.20;87.09
47861;HTU21D;33620;52.340;5.984;2022-10-31T07:44:08;10.24;87.35
47861;HTU21D;33620;52.340;5.984;2022-10-31T07:46:33;10.25;87.54
47861;HTU21D;33620;52.340;5.984;2022-10-31T07:48:58;10.27;87.68
47861;HTU21D;33620;52.340;5.984;2022-10-31T07:51:24;10.31;87.90
47861;HTU21D;33620;52.340;5.984;2022-10-31T07:53:49;10.37;87.93
47861;HTU21D;33620;52.340;5.984;2022-10-31T07:56:15;10.42;88.12
47861;HTU21D;33620;52.340;5.984;2022-10-31T07:58:40;10.48;88.28
47861;HTU21D;33620;52.340;5.984;2022-10-31T08:01:05;10.55;88.57
47861;HTU21D;33620;52.340;5.984;2022-10-31T08:03:31;10.66;88.97
47861;HTU21D;33620;52.340;5.984;2022-10-31T08:05:56;10.72;89.26
47861;HTU21D;33620;52.340;5.984;2022-10-31T08:08:22;10.82;89.54
47861;HTU21D;33620;52.340;5.984;2022-10-31T08:10:49;10.87;89.86
47861;HTU21D;33620;52.340;5.984;2022-10-31T08:13:14;10.95;90.33
47861;HTU21D;33620;52.340;5.984;2022-10-31T08:15:40;11.03;90.47
47861;HTU21D;33620;52.340;5.984;2022-10-31T08:18:11;11.10;90.63
47861;HTU21D;33620;52.340;5.984;2022-10-31T08:20:37;11.15;90.69
47861;HTU21D;33620;52.340;5.984;2022-10-31T08:23:04;11.23;90.71
47861;HTU21D;33620;52.340;5.984;2022-10-31T08:25:32;11.27;90.76
47861;HTU21D;33620;52.340;5.984;2022-10-31T08:27:58;11.33;90.82
47861;HTU21D;33620;52.340;5.984;2022-10-31T08:30:26;11.39;90.85
47861;HTU21D;33620;52.340;5.984;2022-10-31T08:33:13;11.43;90.92
47861;HTU21D;33620;52.340;5.984;2022-10-31T08:35:39;11.43;91.06
47861;HTU21D;33620;52.340;5.984;2022-10-31T08:38:05;11.41;91.32
47861;HTU21D;33620;52.340;5.984;2022-10-31T08:40:32;11.40;91.73
47861;HTU21D;33620;52.340;5.984;2022-10-31T08:43:14;11.45;91.91
47861;HTU21D;33620;52.340;5.984;2022-10-31T08:45:40;11.49;92.08
47861;HTU21D;33620;52.340;5.984;2022-10-31T08:48:09;11.54;92.14
47861;HTU21D;33620;52.340;5.984;2022-10-31T08:50:36;11.59;92.33
47861;HTU21D;33620;52.340;5.984;2022-10-31T08:53:03;11.64;92.45
47861;HTU21D;33620;52.340;5.984;2022-10-31T08:55:29;11.72;92.53
47861;HTU21D;33620;52.340;5.984;2022-10-31T08:57:56;11.78;92.52
47861;HTU21D;33620;52.340;5.984;2022-10-31T09:00:22;11.82;92.47
47861;HTU21D;33620;52.340;5.984;2022-10-31T09:02:47;11.88;92.50
47861;HTU21D;33620;52.340;5.984;2022-10-31T09:05:16;11.92;92.59
47861;HTU21D;33620;52.340;5.984;2022-10-31T09:07:42;11.99;92.62
47861;HTU21D;33620;52.340;5.984;2022-10-31T09:10:07;12.04;92.71
47861;HTU21D;33620;52.340;5.984;2022-10-31T09:12:33;12.10;92.84
47861;HTU21D;33620;52.340;5.984;2022-10-31T09:14:58;12.15;92.92
47861;HTU21D;33620;52.340;5.984;2022-10-31T09:17:25;12.20;92.96
47861;HTU21D;33620;52.340;5.984;2022-10-31T09:19:51;12.25;92.97
47861;HTU21D;33620;52.340;5.984;2022-10-31T09:22:17;12.29;93.10
47861;HTU21D;33620;52.340;5.984;2022-10-31T09:24:42;12.33;93.31
47861;HTU21D;33620;52.340;5.984;2022-10-31T09:27:15;12.38;93.46
47861;HTU21D;33620;52.340;5.984;2022-10-31T09:29:41;12.45;93.60
47861;HTU21D;33620;52.340;5.984;2022-10-31T09:32:06;12.52;93.58
47861;HTU21D;33620;52.340;5.984;2022-10-31T09:34:31;12.59;93.56
47861;HTU21D;33620;52.340;5.984;2022-10-31T09:36:57;12.65;93.53
47861;HTU21D;33620;52.340;5.984;2022-10-31T09:39:22;12.72;93.47
47861;HTU21D;33620;52.340;5.984;2022-10-31T09:50:54;12.92;93.53
47861;HTU21D;33620;52.340;5.984;2022-10-31T09:53:35;12.94;93.47
47861;HTU21D;33620;52.340;5.984;2022-10-31T09:56:06;12.96;93.47
47861;HTU21D;33620;52.340;5.984;2022-10-31T09:58:35;13.01;93.52
47861;HTU21D;33620;52.340;5.984;2022-10-31T10:01:04;13.02;93.38
47861;HTU21D;33620;52.340;5.984;2022-10-31T10:03:38;13.03;93.35
47861;HTU21D;33620;52.340;5.984;2022-10-31T10:08:35;13.06;93.47
47861;HTU21D;33620;52.340;5.984;2022-10-31T10:11:41;13.08;93.49
47861;HTU21D;33620;52.340;5.984;2022-10-31T10:14:24;13.12;93.58
47861;HTU21D;33620;52.340;5.984;2022-10-31T10:25:24;13.31;93.97
47861;HTU21D;33620;52.340;5.984;2022-10-31T10:31:05;13.44;94.00
47861;HTU21D;33620;52.340;5.984;2022-10-31T10:33:56;13.49;94.11
47861;HTU21D;33620;52.340;5.984;2022-10-31T10:36:31;13.56;94.17
47861;HTU21D;33620;52.340;5.984;2022-10-31T10:39:07;13.60;94.07
47861;HTU21D;33620;52.340;5.984;2022-10-31T10:41:33;13.66;94.04
47861;HTU21D;33620;52.340;5.984;2022-10-31T10:43:59;13.70;93.96
47861;HTU21D;33620;52.340;5.984;2022-10-31T10:49:34;13.85;94.07
47861;HTU21D;33620;52.340;5.984;2022-10-31T11:00:45;14.11;94.11
47861;HTU21D;33620;52.340;5.984;2022-10-31T11:03:13;14.18;94.14
47861;HTU21D;33620;52.340;5.984;2022-10-31T11:05:59;14.25;94.20
47861;HTU21D;33620;52.340;5.984;2022-10-31T11:08:35;14.29;94.13
47861;HTU21D;33620;52.340;5.984;2022-10-31T11:11:13;14.34;94.17
47861;HTU21D;33620;52.340;5.984;2022-10-31T11:13:46;14.38;94.11
47861;HTU21D;33620;52.340;5.984;2022-10-31T11:16:33;14.40;94.01
47861;HTU21D;33620;52.340;5.984;2022-10-31T11:21:34;14.42;93.91
47861;HTU21D;33620;52.340;5.984;2022-10-31T11:26:34;14.41;93.95
47861;HTU21D;33620;52.340;5.984;2022-10-31T11:29:00;14.43;94.10
47861;HTU21D;33620;52.340;5.984;2022-10-31T11:31:29;14.45;94.24
47861;HTU21D;33620;52.340;5.984;2022-10-31T11:34:03;14.45;94.23
47861;HTU21D;33620;52.340;5.984;2022-10-31T11:36:38;14.48;94.35
47861;HTU21D;33620;52.340;5.984;2022-10-31T11:39:05;14.52;94.49
47861;HTU21D;33620;52.340;5.984;2022-10-31T11:41:38;14.54;94.49
47861;HTU21D;33620;52.340;5.984;2022-10-31T11:44:10;14.55;94.62
47861;HTU21D;33620;52.340;5.984;2022-10-31T11:46:44;14.58;94.74
47861;HTU21D;33620;52.340;5.984;2022-10-31T11:49:19;14.62;94.73
47861;HTU21D;33620;52.340;5.984;2022-10-31T11:51:54;14.63;94.71
47861;HTU21D;33620;52.340;5.984;2022-10-31T11:54:30;14.65;94.90
47861;HTU21D;33620;52.340;5.984;2022-10-31T11:56:57;14.68;94.81
47861;HTU21D;33620;52.340;5.984;2022-10-31T12:01:53;14.74;95.02
47861;HTU21D;33620;52.340;5.984;2022-10-31T12:04:23;14.80;95.10
47861;HTU21D;33620;52.340;5.984;2022-10-31T12:06:50;14.85;95.07
47861;HTU21D;33620;52.340;5.984;2022-10-31T12:09:25;14.88;94.94
47861;HTU21D;33620;52.340;5.984;2022-10-31T12:12:11;14.89;94.66
47861;HTU21D;33620;52.340;5.984;2022-10-31T12:14:54;14.93;94.24
47861;HTU21D;33620;52.340;5.984;2022-10-31T12:17:25;14.95;93.87
47861;HTU21D;33620;52.340;5.984;2022-10-31T12:23:03;15.01;92.79
47861;HTU21D;33620;52.340;5.984;2022-10-31T12:25:50;15.04;92.27
47861;HTU21D;33620;52.340;5.984;2022-10-31T12:31:19;15.13;91.81
47861;HTU21D;33620;52.340;5.984;2022-10-31T12:39:23;15.23;91.40
47861;HTU21D;33620;52.340;5.984;2022-10-31T12:47:55;15.31;91.00
47861;HTU21D;33620;52.340;5.984;2022-10-31T12:56:13;15.41;91.02
47861;HTU21D;33620;52.340;5.984;2022-10-31T12:58:47;15.46;91.05
47861;HTU21D;33620;52.340;5.984;2022-10-31T13:01:16;15.48;90.82
47861;HTU21D;33620;52.340;5.984;2022-10-31T13:03:53;15.49;90.52
47861;HTU21D;33620;52.340;5.984;2022-10-31T13:06:23;15.53;90.32
47861;HTU21D;33620;52.340;5.984;2022-10-31T13:08:59;15.55;89.99
47861;HTU21D;33620;52.340;5.984;2022-10-31T13:11:30;15.57;89.92
47861;HTU21D;33620;52.340;5.984;2022-10-31T13:16:35;15.63;89.92
47861;HTU21D;33620;52.340;5.984;2022-10-31T13:19:08;15.67;89.83
47861;HTU21D;33620;52.340;5.984;2022-10-31T13:24:30;15.78;89.51
47861;HTU21D;33620;52.340;5.984;2022-10-31T13:27:01;15.83;89.57
47861;HTU21D;33620;52.340;5.984;2022-10-31T13:29:35;15.88;89.44
47861;HTU21D;33620;52.340;5.984;2022-10-31T13:32:05;15.92;89.13
47861;HTU21D;33620;52.340;5.984;2022-10-31T13:34:39;15.96;89.05
47861;HTU21D;33620;52.340;5.984;2022-10-31T13:37:35;16.01;88.65
47861;HTU21D;33620;52.340;5.984;2022-10-31T13:45:16;16.08;88.18
47861;HTU21D;33620;52.340;5.984;2022-10-31T13:47:43;16.06;87.52
47861;HTU21D;33620;52.340;5.984;2022-10-31T13:50:28;16.06;87.19
47861;HTU21D;33620;52.340;5.984;2022-10-31T13:53:56;16.06;87.08
47861;HTU21D;33620;52.340;5.984;2022-10-31T13:58:38;16.01;87.18
47861;HTU21D;33620;52.340;5.984;2022-10-31T14:01:13;15.99;87.25
47861;HTU21D;33620;52.340;5.984;2022-10-31T14:03:41;15.96;87.41
47861;HTU21D;33620;52.340;5.984;2022-10-31T14:06:09;15.95;87.48
47861;HTU21D;33620;52.340;5.984;2022-10-31T14:08:39;15.93;87.46
47861;HTU21D;33620;52.340;5.984;2022-10-31T14:11:07;15.92;87.38
47861;HTU21D;33620;52.340;5.984;2022-10-31T14:13:37;15.91;87.38
47861;HTU21D;33620;52.340;5.984;2022-10-31T14:16:05;15.91;87.14
47861;HTU21D;33620;52.340;5.984;2022-10-31T14:18:38;15.90;86.98
47861;HTU21D;33620;52.340;5.984;2022-10-31T14:21:43;15.90;86.77
47861;HTU21D;33620;52.340;5.984;2022-10-31T14:26:54;15.89;86.67
47861;HTU21D;33620;52.340;5.984;2022-10-31T14:40:02;15.87;86.94
47861;HTU21D;33620;52.340;5.984;2022-10-31T14:52:57;15.86;86.98
47861;HTU21D;33620;52.340;5.984;2022-10-31T14:55:25;15.85;87.00
47861;HTU21D;33620;52.340;5.984;2022-10-31T14:57:54;15.85;86.98
47861;HTU21D;33620;52.340;5.984;2022-10-31T15:00:22;15.83;87.09
47861;HTU21D;33620;52.340;5.984;2022-10-31T15:03:14;15.82;87.16
47861;HTU21D;33620;52.340;5.984;2022-10-31T15:05:44;15.81;87.32
47861;HTU21D;33620;52.340;5.984;2022-10-31T15:08:25;15.78;87.57
47861;HTU21D;33620;52.340;5.984;2022-10-31T15:10:52;15.78;87.72
47861;HTU21D;33620;52.340;5.984;2022-10-31T15:13:19;15.76;87.76
47861;HTU21D;33620;52.340;5.984;2022-10-31T15:15:46;15.76;87.80
47861;HTU21D;33620;52.340;5.984;2022-10-31T15:18:18;15.75;87.93
47861;HTU21D;33620;52.340;5.984;2022-10-31T15:20:45;15.74;87.96
47861;HTU21D;33620;52.340;5.984;2022-10-31T15:23:21;15.72;87.99
47861;HTU21D;33620;52.340;5.984;2022-10-31T15:25:48;15.71;88.12
47861;HTU21D;33620;52.340;5.984;2022-10-31T15:28:21;15.71;88.24
47861;HTU21D;33620;52.340;5.984;2022-10-31T15:30:58;15.71;88.31
47861;HTU21D;33620;52.340;5.984;2022-10-31T15:33:30;15.68;88.38
47861;HTU21D;33620;52.340;5.984;2022-10-31T15:36:00;15.67;88.47
47861;HTU21D;33620;52.340;5.984;2022-10-31T15:38:27;15.66;88.47
47861;HTU21D;33620;52.340;5.984;2022-10-31T15:41:23;15.66;88.54
47861;HTU21D;33620;52.340;5.984;2022-10-31T15:43:49;15.63;88.61
47861;HTU21D;33620;52.340;5.984;2022-10-31T15:46:14;15.62;88.66
47861;HTU21D;33620;52.340;5.984;2022-10-31T15:48:44;15.60;88.72
47861;HTU21D;33620;52.340;5.984;2022-10-31T15:51:10;15.58;88.80
47861;HTU21D;33620;52.340;5.984;2022-10-31T15:53:50;15.57;88.80
47861;HTU21D;33620;52.340;5.984;2022-10-31T15:56:25;15.56;88.77
47861;HTU21D;33620;52.340;5.984;2022-10-31T15:58:53;15.55;88.83
47861;HTU21D;33620;52.340;5.984;2022-10-31T16:01:22;15.54;88.81
47861;HTU21D;33620;52.340;5.984;2022-10-31T16:06:38;15.53;88.97
47861;HTU21D;33620;52.340;5.984;2022-10-31T16:09:21;15.55;88.91
47861;HTU21D;33620;52.340;5.984;2022-10-31T16:11:47;15.56;88.87
47861;HTU21D;33620;52.340;5.984;2022-10-31T16:16:44;15.58;88.70
47861;HTU21D;33620;52.340;5.984;2022-10-31T16:19:37;15.59;88.67
47861;HTU21D;33620;52.340;5.984;2022-10-31T16:22:12;15.59;88.65
47861;HTU21D;33620;52.340;5.984;2022-10-31T16:24:46;15.59;88.64
47861;HTU21D;33620;52.340;5.984;2022-10-31T16:27:19;15.58;88.63
47861;HTU21D;33620;52.340;5.984;2022-10-31T16:29:48;15.59;88.58
47861;HTU21D;33620;52.340;5.984;2022-10-31T16:32:33;15.57;88.61
47861;HTU21D;33620;52.340;5.984;2022-10-31T16:35:19;15.56;88.64
47861;HTU21D;33620;52.340;5.984;2022-10-31T16:37:48;15.55;88.67
47861;HTU21D;33620;52.340;5.984;2022-10-31T16:40:14;15.52;88.74
47861;HTU21D;33620;52.340;5.984;2022-10-31T16:42:43;15.51;88.73
47861;HTU21D;33620;52.340;5.984;2022-10-31T16:45:21;15.51;88.74
47861;HTU21D;33620;52.340;5.984;2022-10-31T16:47:47;15.48;88.83
47861;HTU21D;33620;52.340;5.984;2022-10-31T16:50:19;15.47;88.84
47861;HTU21D;33620;52.340;5.984;2022-10-31T16:52:45;15.45;88.92
47861;HTU21D;33620;52.340;5.984;2022-10-31T16:55:13;15.44;89.01
47861;HTU21D;33620;52.340;5.984;2022-10-31T16:57:42;15.44;89.07
47861;HTU21D;33620;52.340;5.984;2022-10-31T17:00:13;15.43;89.07
47861;HTU21D;33620;52.340;5.984;2022-10-31T17:02:39;15.43;89.12
47861;HTU21D;33620;52.340;5.984;2022-10-31T17:05:04;15.42;89.17
47861;HTU21D;33620;52.340;5.984;2022-10-31T17:07:30;15.41;89.24
47861;HTU21D;33620;52.340;5.984;2022-10-31T17:09:55;15.41;89.27
47861;HTU21D;33620;52.340;5.984;2022-10-31T17:12:23;15.40;89.29
47861;HTU21D;33620;52.340;5.984;2022-10-31T17:14:51;15.39;89.25
47861;HTU21D;33620;52.340;5.984;2022-10-31T17:17:16;15.37;89.24
47861;HTU21D;33620;52.340;5.984;2022-10-31T17:19:42;15.36;89.29
47861;HTU21D;33620;52.340;5.984;2022-10-31T17:22:10;15.33;89.28
47861;HTU21D;33620;52.340;5.984;2022-10-31T17:24:36;15.30;89.37
47861;HTU21D;33620;52.340;5.984;2022-10-31T17:27:01;15.29;89.49
47861;HTU21D;33620;52.340;5.984;2022-10-31T17:29:27;15.28;89.68
47861;HTU21D;33620;52.340;5.984;2022-10-31T17:31:52;15.27;89.69
47861;HTU21D;33620;52.340;5.984;2022-10-31T17:34:18;15.27;89.79
47861;HTU21D;33620;52.340;5.984;2022-10-31T17:36:49;15.27;89.85
47861;HTU21D;33620;52.340;5.984;2022-10-31T17:39:14;15.26;89.73
47861;HTU21D;33620;52.340;5.984;2022-10-31T17:41:40;15.25;89.79
47861;HTU21D;33620;52.340;5.984;2022-10-31T17:44:05;15.24;89.90
47861;HTU21D;33620;52.340;5.984;2022-10-31T17:46:30;15.24;89.84
47861;HTU21D;33620;52.340;5.984;2022-10-31T17:48:56;15.25;89.83
47861;HTU21D;33620;52.340;5.984;2022-10-31T17:51:22;15.22;89.74
47861;HTU21D;33620;52.340;5.984;2022-10-31T17:53:47;15.22;89.84
47861;HTU21D;33620;52.340;5.984;2022-10-31T17:56:13;15.19;89.81
47861;HTU21D;33620;52.340;5.984;2022-10-31T17:58:38;15.17;89.95
47861;HTU21D;33620;52.340;5.984;2022-10-31T18:01:12;15.17;90.04